createdAt,value
2018-02-15T00:32:06.619Z,9.30
2018-02-15T00:34:36.533Z,8.80
2018-02-15T00:37:05.043Z,8.80
2018-02-15T00:39:33.433Z,8.80
2018-02-15T00:42:01.798Z,8.80
2018-02-15T00:44:36.398Z,8.80
2018-02-15T00:47:06.827Z,8.70
2018-02-15T00:49:35.302Z,8.70
2018-02-15T00:52:03.681Z,8.70
2018-02-15T00:54:32.073Z,8.70
2018-02-15T00:57:00.541Z,8.70
2018-02-15T00:59:28.931Z,8.80
2018-02-15T01:01:57.200Z,8.90
2018-02-15T01:04:25.674Z,8.90
2018-02-15T01:06:54.065Z,8.90
2018-02-15T01:09:23.045Z,8.90
2018-02-15T01:11:51.535Z,8.90
2018-02-15T01:14:19.937Z,9.00
2018-02-15T01:16:48.207Z,9.00
2018-02-15T01:19:16.661Z,9.00
2018-02-15T01:21:45.154Z,9.00
2018-02-15T01:24:21.205Z,9.00
2018-02-15T01:26:49.580Z,9.00
2018-02-15T01:29:18.063Z,9.00
2018-02-15T01:31:46.438Z,9.00
2018-02-15T01:34:14.919Z,9.00
2018-02-15T01:36:44.019Z,9.10
2018-02-15T01:39:12.307Z,9.10
2018-02-15T01:41:46.814Z,9.20
2018-02-15T01:44:15.300Z,9.20
2018-02-15T01:46:43.625Z,9.20
2018-02-15T01:49:12.077Z,9.30
2018-02-15T01:51:40.376Z,9.40
2018-02-15T01:54:10.250Z,9.30
2018-02-15T01:56:45.893Z,9.20
2018-02-15T01:59:15.444Z,9.10
2018-02-15T02:01:43.733Z,9.00
2018-02-15T02:04:12.051Z,9.10
2018-02-15T02:06:40.697Z,9.00
2018-02-15T02:09:10.445Z,9.00
2018-02-15T02:11:38.924Z,8.90
2018-02-15T02:14:07.234Z,8.90
2018-02-15T02:16:35.613Z,8.80
2018-02-15T02:19:04.755Z,8.80
2018-02-15T02:21:33.841Z,8.80
2018-02-15T02:24:03.084Z,8.80
2018-02-15T02:26:31.559Z,8.80
2018-02-15T02:29:00.036Z,8.80
2018-02-15T02:31:28.335Z,8.80
2018-02-15T02:33:56.705Z,8.80
2018-02-15T02:36:25.887Z,8.90
2018-02-15T02:38:54.372Z,9.00
2018-02-15T02:41:22.844Z,9.00
2018-02-15T02:43:51.242Z,9.00
2018-02-15T02:46:20.172Z,9.10
2018-02-15T02:48:49.316Z,9.40
2018-02-15T02:51:17.621Z,9.30
2018-02-15T02:53:45.894Z,9.40
2018-02-15T02:56:14.347Z,9.40
2018-02-15T02:58:42.831Z,9.40
2018-02-15T03:01:11.306Z,9.40
2018-02-15T03:03:39.634Z,9.50
2018-02-15T03:06:09.731Z,9.40
2018-02-15T03:08:46.850Z,9.30
2018-02-15T03:11:15.906Z,9.30
2018-02-15T03:13:54.012Z,9.30
2018-02-15T03:16:22.986Z,9.40
2018-02-15T03:18:57.973Z,9.30
2018-02-15T03:21:26.804Z,9.20
2018-02-15T03:24:07.604Z,9.20
2018-02-15T03:26:37.362Z,9.10
2018-02-15T03:29:06.435Z,9.20
2018-02-15T03:31:36.703Z,9.20
2018-02-15T03:34:05.110Z,9.20
2018-02-15T03:36:33.559Z,9.10
2018-02-15T03:39:01.869Z,9.00
2018-02-15T03:41:30.243Z,9.00
2018-02-15T03:43:58.620Z,9.10
2018-02-15T03:46:26.995Z,9.10
2018-02-15T03:48:55.447Z,9.00
2018-02-15T03:51:31.514Z,9.00
2018-02-15T03:53:59.993Z,9.00
2018-02-15T03:56:28.467Z,8.90
2018-02-15T03:58:56.948Z,8.90
2018-02-15T04:01:25.226Z,9.00
2018-02-15T04:04:07.062Z,9.10
2018-02-15T04:06:36.143Z,9.10
2018-02-15T04:09:04.797Z,9.10
2018-02-15T04:11:33.178Z,9.00
2018-02-15T04:14:01.977Z,9.00
2018-02-15T04:16:31.468Z,8.90
2018-02-15T04:19:03.134Z,8.90
2018-02-15T04:21:32.644Z,8.80
2018-02-15T04:24:01.637Z,8.80
2018-02-15T04:26:43.618Z,8.80
2018-02-15T04:29:24.789Z,8.80
2018-02-15T04:31:53.180Z,8.70
2018-02-15T04:34:34.685Z,8.80
2018-02-15T04:37:02.980Z,8.80
2018-02-15T04:39:31.333Z,8.80
2018-02-15T04:41:59.643Z,8.80
2018-02-15T04:44:27.990Z,8.90
2018-02-15T04:47:12.007Z,8.80
2018-02-15T04:49:40.341Z,8.70
2018-02-15T04:52:10.326Z,8.60
2018-02-15T04:54:40.845Z,8.60
2018-02-15T04:57:09.296Z,8.60
2018-02-15T04:59:37.814Z,8.60
2018-02-15T05:02:06.186Z,8.60
2018-02-15T05:04:34.663Z,8.60
2018-02-15T05:07:03.037Z,8.60
2018-02-15T05:09:31.735Z,8.60
2018-02-15T05:12:00.249Z,8.60
2018-02-15T05:14:29.434Z,8.70
2018-02-15T05:16:57.988Z,8.70
2018-02-15T05:19:32.589Z,8.70
2018-02-15T05:22:01.728Z,8.60
2018-02-15T05:24:30.062Z,8.60
2018-02-15T05:26:58.450Z,8.60
2018-02-15T05:29:40.281Z,8.60
2018-02-15T05:32:12.555Z,8.60
2018-02-15T05:34:41.008Z,8.50
2018-02-15T05:37:09.391Z,8.50
2018-02-15T05:39:38.057Z,8.50
2018-02-15T05:42:06.458Z,8.50
2018-02-15T05:44:34.827Z,8.60
2018-02-15T05:47:03.351Z,8.50
2018-02-15T05:49:39.205Z,8.60
2018-02-15T05:52:08.897Z,8.60
2018-02-15T05:54:37.963Z,8.60
2018-02-15T05:57:06.270Z,8.50
2018-02-15T05:59:34.651Z,8.60
2018-02-15T06:02:03.125Z,8.60
2018-02-15T06:04:49.145Z,8.50
2018-02-15T06:07:19.140Z,8.40
2018-02-15T06:09:47.591Z,8.40
2018-02-15T06:12:15.994Z,8.50
2018-02-15T06:14:57.971Z,8.40
2018-02-15T06:17:26.313Z,8.40
2018-02-15T06:19:55.552Z,8.40
2018-02-15T06:22:23.947Z,8.40
2018-02-15T06:24:52.398Z,8.40
2018-02-15T06:27:20.879Z,8.50
2018-02-15T06:29:50.066Z,8.50
2018-02-15T06:32:19.176Z,8.50
2018-02-15T06:34:47.754Z,8.40
2018-02-15T06:37:16.089Z,8.50
2018-02-15T06:39:45.436Z,8.50
2018-02-15T06:42:13.725Z,8.60
2018-02-15T06:44:42.122Z,8.70
2018-02-15T06:47:10.441Z,8.70
2018-02-15T06:49:39.597Z,8.70
2018-02-15T06:52:25.793Z,8.70
2018-02-15T06:54:54.156Z,8.50
2018-02-15T06:57:22.561Z,8.50
2018-02-15T06:59:52.431Z,8.50
2018-02-15T07:02:21.028Z,8.50
2018-02-15T07:04:49.478Z,8.60
2018-02-15T07:07:17.974Z,8.80
2018-02-15T07:09:46.694Z,8.90
2018-02-15T07:12:15.139Z,9.00
2018-02-15T07:14:43.544Z,9.10
2018-02-15T07:17:12.028Z,9.20
2018-02-15T07:19:40.378Z,9.40
2018-02-15T07:22:08.857Z,9.70
2018-02-15T07:24:37.236Z,9.90
2018-02-15T07:27:05.723Z,10.30
2018-02-15T07:29:46.931Z,10.60
2018-02-15T07:32:15.477Z,10.70
2018-02-15T07:34:44.928Z,11.00
2018-02-15T07:37:13.473Z,11.10
2018-02-15T07:39:50.070Z,11.40
2018-02-15T07:42:19.336Z,11.80
2018-02-15T07:44:54.470Z,11.80
2018-02-15T07:47:23.060Z,12.10
2018-02-15T07:49:58.330Z,12.60
2018-02-15T07:52:26.770Z,13.30
2018-02-15T07:54:56.186Z,13.80
2018-02-15T07:57:31.722Z,14.40
2018-02-15T08:00:00.205Z,14.80
2018-02-15T08:02:35.784Z,15.60
2018-02-15T08:05:04.232Z,16.20
2018-02-15T08:07:32.719Z,16.50
2018-02-15T08:10:01.157Z,16.20
2018-02-15T08:12:34.590Z,17.20
2018-02-15T08:15:03.070Z,17.20
2018-02-15T08:17:34.838Z,17.70
2018-02-15T08:20:03.167Z,17.40
2018-02-15T08:22:32.261Z,17.20
2018-02-15T08:25:01.814Z,17.30
2018-02-15T08:27:30.479Z,17.90
2018-02-15T08:29:58.777Z,18.80
2018-02-15T08:32:30.723Z,19.50
2018-02-15T08:35:00.592Z,19.20
2018-02-15T08:37:30.059Z,19.20
2018-02-15T08:39:58.529Z,19.50
2018-02-15T08:42:27.249Z,19.40
2018-02-15T08:44:55.730Z,19.00
2018-02-15T08:47:24.187Z,18.60
2018-02-15T08:49:52.658Z,18.60
2018-02-15T08:52:21.063Z,19.40
2018-02-15T08:54:49.429Z,20.20
2018-02-15T08:57:17.779Z,20.70
2018-02-15T08:59:46.717Z,21.40
2018-02-15T09:02:15.024Z,22.30
2018-02-15T09:04:44.398Z,21.50
2018-02-15T09:07:20.079Z,21.50
2018-02-15T09:09:52.590Z,22.30
2018-02-15T09:12:21.136Z,22.30
2018-02-15T09:14:50.270Z,23.40
2018-02-15T09:17:18.674Z,23.30
2018-02-15T09:19:47.068Z,23.60
2018-02-15T09:22:15.510Z,23.50
2018-02-15T09:24:44.075Z,23.50
2018-02-15T09:27:12.576Z,23.40
2018-02-15T09:29:41.158Z,23.80
2018-02-15T09:32:09.855Z,24.20
2018-02-15T09:34:48.745Z,24.10
2018-02-15T09:37:17.877Z,24.50
2018-02-15T09:39:51.153Z,24.40
2018-02-15T09:42:19.664Z,24.10
2018-02-15T09:44:49.099Z,23.80
2018-02-15T09:47:25.042Z,23.50
2018-02-15T09:49:53.577Z,23.50
2018-02-15T09:52:25.957Z,23.80
2018-02-15T09:54:54.353Z,24.30
2018-02-15T09:57:22.811Z,24.80
2018-02-15T09:59:51.225Z,25.00
2018-02-15T10:02:19.768Z,25.40
2018-02-15T10:04:48.186Z,25.90
2018-02-15T10:07:16.736Z,26.20
2018-02-15T10:09:56.483Z,26.60
2018-02-15T10:12:24.957Z,26.50
2018-02-15T10:14:53.371Z,26.20
2018-02-15T10:17:27.839Z,25.80
2018-02-15T10:19:56.966Z,25.70
2018-02-15T10:22:25.437Z,25.70
2018-02-15T10:24:54.068Z,25.80
2018-02-15T10:27:24.038Z,25.60
2018-02-15T10:29:52.520Z,25.60
2018-02-15T10:32:21.099Z,25.50
2018-02-15T10:34:50.199Z,25.30
2018-02-15T10:37:18.674Z,25.20
2018-02-15T10:39:47.156Z,25.10
2018-02-15T10:42:17.377Z,24.90
2018-02-15T10:44:45.693Z,24.40
2018-02-15T10:47:14.052Z,24.80
2018-02-15T10:49:42.442Z,25.50
2018-02-15T10:52:10.788Z,26.00
2018-02-15T10:54:42.240Z,26.30
2018-02-15T10:57:10.591Z,26.30
2018-02-15T10:59:39.823Z,26.00
2018-02-15T11:02:13.888Z,25.90
2018-02-15T11:04:56.391Z,25.70
2018-02-15T11:07:25.691Z,25.60
2018-02-15T11:09:54.627Z,25.60
2018-02-15T11:12:22.941Z,25.50
2018-02-15T11:14:52.923Z,25.30
2018-02-15T11:17:21.435Z,25.40
2018-02-15T11:19:49.901Z,25.60
2018-02-15T11:22:18.274Z,25.80
2018-02-15T11:25:02.618Z,26.10
2018-02-15T11:27:31.098Z,26.20
2018-02-15T11:30:00.546Z,26.50
2018-02-15T11:32:29.090Z,26.50
2018-02-15T11:35:03.711Z,26.60
2018-02-15T11:37:32.187Z,26.80
2018-02-15T11:40:00.546Z,27.00
2018-02-15T11:42:29.053Z,26.80
2018-02-15T11:44:58.146Z,27.00
2018-02-15T11:47:26.627Z,26.60
2018-02-15T11:49:55.138Z,26.60
2018-02-15T11:52:34.192Z,27.20
2018-02-15T11:55:03.842Z,27.20
2018-02-15T11:57:32.323Z,27.40
2018-02-15T12:00:00.703Z,27.40
2018-02-15T12:02:29.037Z,27.10
2018-02-15T12:05:04.933Z,27.30
2018-02-15T12:07:33.443Z,27.50
2018-02-15T12:10:01.998Z,27.70
2018-02-15T12:12:30.481Z,27.90
2018-02-15T12:14:59.471Z,27.80
2018-02-15T12:17:28.105Z,27.50
2018-02-15T12:19:56.437Z,27.50
2018-02-15T12:22:24.813Z,27.80
2018-02-15T12:24:53.123Z,28.30
2018-02-15T12:27:21.569Z,28.80
2018-02-15T12:29:51.177Z,28.70
2018-02-15T12:32:28.472Z,28.80
2018-02-15T12:34:57.049Z,28.60
2018-02-15T12:37:26.097Z,28.80
2018-02-15T12:39:55.340Z,28.30
2018-02-15T12:42:23.824Z,28.30
2018-02-15T12:45:09.375Z,28.60
2018-02-15T12:47:38.805Z,27.00
2018-02-15T12:50:07.138Z,27.00
2018-02-15T12:52:35.459Z,27.90
2018-02-15T12:55:03.943Z,27.90
2018-02-15T12:57:32.422Z,28.40
2018-02-15T13:00:03.499Z,28.80
2018-02-15T13:02:35.539Z,28.90
2018-02-15T13:05:04.096Z,27.10
2018-02-15T13:07:32.487Z,27.50
2018-02-15T13:10:03.498Z,27.00
2018-02-15T13:12:44.725Z,27.20
2018-02-15T13:15:25.790Z,27.20
2018-02-15T13:17:54.454Z,27.90
2018-02-15T13:20:23.060Z,27.90
2018-02-15T13:22:52.189Z,27.40
2018-02-15T13:25:20.634Z,25.70
2018-02-15T13:28:07.240Z,25.90
2018-02-15T13:30:37.410Z,25.00
2018-02-15T13:33:06.810Z,24.40
2018-02-15T13:35:36.205Z,24.20
2018-02-15T13:38:19.283Z,24.20
2018-02-15T13:41:07.752Z,23.30
2018-02-15T13:43:36.137Z,22.50
2018-02-15T13:46:04.618Z,21.20
2018-02-15T13:48:52.552Z,20.10
2018-02-15T13:51:21.047Z,20.20
2018-02-15T13:53:49.595Z,20.90
2018-02-15T13:56:18.115Z,21.40
2018-02-15T13:58:46.732Z,22.50
2018-02-15T14:01:16.060Z,24.70
2018-02-15T14:03:51.486Z,24.70
2018-02-15T14:06:19.943Z,24.30
2018-02-15T14:08:49.114Z,23.90
2018-02-15T14:11:17.466Z,23.80
2018-02-15T14:13:45.869Z,24.00
2018-02-15T14:16:14.322Z,24.60
2018-02-15T14:18:43.133Z,25.20
2018-02-15T14:21:11.470Z,25.00
2018-02-15T14:23:43.246Z,25.30
2018-02-15T14:26:11.653Z,25.50
2018-02-15T14:28:39.979Z,25.50
2018-02-15T14:31:08.496Z,25.40
2018-02-15T14:33:36.858Z,25.70
2018-02-15T14:36:14.489Z,26.50
2018-02-15T14:39:02.812Z,26.40
2018-02-15T14:41:31.960Z,26.10
2018-02-15T14:44:01.609Z,24.70
2018-02-15T14:46:30.190Z,24.70
2018-02-15T14:49:04.607Z,25.30
2018-02-15T14:51:36.882Z,25.70
2018-02-15T14:54:05.275Z,25.80
2018-02-15T14:56:46.394Z,26.10
2018-02-15T14:59:15.918Z,26.30
2018-02-15T15:01:45.016Z,26.30
2018-02-15T15:04:13.475Z,26.80
2018-02-15T15:06:42.655Z,26.10
2018-02-15T15:09:20.005Z,26.10
2018-02-15T15:11:48.480Z,25.80
2018-02-15T15:14:16.862Z,26.00
2018-02-15T15:16:45.340Z,26.00
2018-02-15T15:19:27.203Z,25.70
2018-02-15T15:21:56.437Z,24.80
2018-02-15T15:24:24.918Z,24.70
2018-02-15T15:26:53.342Z,23.80
2018-02-15T15:29:27.920Z,22.20
2018-02-15T15:31:56.504Z,22.70
2018-02-15T15:34:24.938Z,22.80
2018-02-15T15:36:53.481Z,23.10
2018-02-15T15:39:21.950Z,22.60
2018-02-15T15:41:56.980Z,21.30
2018-02-15T15:44:25.768Z,20.00
2018-02-15T15:46:54.161Z,20.20
2018-02-15T15:49:23.537Z,21.00
2018-02-15T15:51:52.143Z,21.90
2018-02-15T15:54:20.524Z,22.30
2018-02-15T15:56:48.887Z,22.50
2018-02-15T15:59:24.648Z,22.10
2018-02-15T16:01:53.120Z,22.10
2018-02-15T16:04:21.437Z,21.50
2018-02-15T16:06:49.934Z,20.70
2018-02-15T16:09:24.425Z,20.00
2018-02-15T16:11:52.885Z,18.90
2018-02-15T16:14:21.183Z,18.20
2018-02-15T16:16:49.637Z,18.20
2018-02-15T16:19:18.036Z,18.50
2018-02-15T16:21:46.655Z,18.50
2018-02-15T16:24:15.185Z,18.90
2018-02-15T16:26:48.153Z,19.40
2018-02-15T16:29:16.531Z,19.20
2018-02-15T16:31:51.730Z,18.40
2018-02-15T16:34:27.144Z,16.90
2018-02-15T16:36:55.463Z,16.80
2018-02-15T16:39:23.992Z,16.20
2018-02-15T16:42:00.167Z,15.70
2018-02-15T16:44:30.050Z,15.50
2018-02-15T16:47:00.388Z,15.40
2018-02-15T16:49:28.885Z,15.30
2018-02-15T16:51:57.357Z,15.20
2018-02-15T16:54:25.832Z,15.00
2018-02-15T16:57:01.370Z,14.90
2018-02-15T16:59:30.061Z,14.80
2018-02-15T17:02:04.450Z,14.60
2018-02-15T17:04:33.681Z,14.50
2018-02-15T17:07:02.205Z,14.50
2018-02-15T17:09:32.379Z,14.30
2018-02-15T17:12:00.742Z,14.30
2018-02-15T17:14:29.158Z,14.30
2018-02-15T17:17:10.932Z,14.20
2018-02-15T17:19:42.605Z,14.00
2018-02-15T17:22:11.070Z,13.90
2018-02-15T17:24:39.449Z,13.90
2018-02-15T17:27:15.141Z,13.70
2018-02-15T17:29:43.606Z,13.50
2018-02-15T17:32:11.935Z,13.50
2018-02-15T17:34:40.458Z,13.30
2018-02-15T17:37:08.996Z,13.30
2018-02-15T17:39:37.442Z,13.30
2018-02-15T17:42:05.983Z,13.20
2018-02-15T17:44:34.388Z,13.10
2018-02-15T17:47:10.082Z,13.10
2018-02-15T17:49:38.492Z,13.00
2018-02-15T17:52:07.080Z,12.90
2018-02-15T17:54:35.967Z,12.80
2018-02-15T17:57:10.075Z,12.80
2018-02-15T17:59:38.486Z,12.90
2018-02-15T18:02:06.806Z,12.90
2018-02-15T18:04:35.979Z,12.90
2018-02-15T18:07:04.407Z,12.80
2018-02-15T18:09:32.740Z,12.80
2018-02-15T18:12:07.309Z,12.90
2018-02-15T18:14:35.717Z,13.00
2018-02-15T18:17:04.074Z,13.00
2018-02-15T18:19:32.444Z,13.00
2018-02-15T18:22:01.006Z,13.00
2018-02-15T18:24:36.701Z,13.00
2018-02-15T18:27:05.014Z,13.00
2018-02-15T18:29:33.592Z,13.00
2018-02-15T18:32:03.477Z,13.00
2018-02-15T18:34:31.960Z,13.00
2018-02-15T18:37:00.418Z,13.00
2018-02-15T18:39:28.997Z,13.00
2018-02-15T18:42:10.593Z,12.90
2018-02-15T18:44:38.982Z,13.00
2018-02-15T18:47:09.805Z,12.90
2018-02-15T18:49:38.935Z,12.90
2018-02-15T18:52:20.216Z,12.80
2018-02-15T18:54:53.298Z,12.80
2018-02-15T18:57:21.646Z,12.80
2018-02-15T18:59:50.121Z,12.80
2018-02-15T19:02:19.323Z,12.80
2018-02-15T19:04:48.026Z,12.80
2018-02-15T19:07:16.487Z,12.80
2018-02-15T19:09:44.888Z,12.90
2018-02-15T19:12:13.397Z,13.10
2018-02-15T19:14:41.898Z,13.20
2018-02-15T19:17:12.163Z,13.50
2018-02-15T19:19:42.193Z,13.40
2018-02-15T19:22:16.623Z,13.40
2018-02-15T19:24:45.915Z,13.50
2018-02-15T19:27:15.214Z,13.50
2018-02-15T19:29:43.708Z,13.60
2018-02-15T19:32:14.129Z,13.70
2018-02-15T19:34:42.472Z,13.70
2018-02-15T19:37:10.863Z,13.70
2018-02-15T19:39:39.332Z,13.70
2018-02-15T19:42:07.815Z,13.70
2018-02-15T19:44:36.946Z,13.70
2018-02-15T19:47:05.480Z,13.70
2018-02-15T19:49:40.975Z,13.70
2018-02-15T19:52:09.369Z,13.60
2018-02-15T19:54:37.858Z,13.70
2018-02-15T19:57:19.576Z,13.70
2018-02-15T19:59:48.100Z,13.70
2018-02-15T20:02:16.666Z,13.70
2018-02-15T20:04:45.142Z,13.70
2018-02-15T20:07:16.051Z,13.70
2018-02-15T20:09:51.849Z,13.70
2018-02-15T20:12:20.249Z,13.70
2018-02-15T20:14:50.421Z,13.50
2018-02-15T20:17:18.766Z,13.50
2018-02-15T20:19:53.515Z,13.40
2018-02-15T20:22:22.017Z,13.40
2018-02-15T20:24:51.380Z,13.40
2018-02-15T20:30:31.293Z,13.30
2018-02-15T20:33:07.138Z,13.30
2018-02-15T20:35:35.628Z,13.30
2018-02-15T20:38:16.705Z,13.30
2018-02-15T20:40:45.232Z,13.30
2018-02-15T20:43:20.193Z,13.30
2018-02-15T20:45:48.712Z,13.30
2018-02-15T20:48:17.526Z,13.40
2018-02-15T20:50:51.802Z,13.50
2018-02-15T20:53:26.174Z,13.50
2018-02-15T20:55:56.151Z,13.50
2018-02-15T20:58:25.644Z,13.60
2018-02-15T21:00:55.861Z,13.50
2018-02-15T21:03:24.273Z,13.60
2018-02-15T21:05:52.819Z,13.50
2018-02-15T21:08:21.407Z,13.60
2018-02-15T21:10:50.306Z,13.60
2018-02-15T21:13:18.671Z,13.60
2018-02-15T21:15:47.038Z,13.70
2018-02-15T21:18:18.820Z,13.60
2018-02-15T21:20:52.327Z,13.60
2018-02-15T21:23:21.095Z,13.60
2018-02-15T21:25:57.550Z,13.60
2018-02-15T21:28:35.240Z,13.60
2018-02-15T21:31:03.591Z,13.60
2018-02-15T21:33:32.832Z,13.40
2018-02-15T21:36:02.137Z,13.40
2018-02-15T21:38:35.614Z,13.30
2018-02-15T21:41:04.057Z,13.20
2018-02-15T21:43:33.344Z,13.10
2018-02-15T21:46:02.217Z,13.00
2018-02-15T21:48:37.938Z,12.90
2018-02-15T21:51:13.599Z,12.80
2018-02-15T21:53:41.943Z,12.70
2018-02-15T21:56:11.081Z,12.60
2018-02-15T21:58:43.156Z,12.60
2018-02-15T22:01:13.869Z,12.50
2018-02-15T22:03:42.768Z,12.50
2018-02-15T22:06:12.987Z,12.50
2018-02-15T22:08:42.691Z,12.60
2018-02-15T22:11:18.089Z,12.60
2018-02-15T22:13:47.440Z,12.60
2018-02-15T22:16:15.921Z,12.60
2018-02-15T22:18:48.822Z,12.60
2018-02-15T22:21:17.497Z,12.70
2018-02-15T22:23:52.030Z,12.70
2018-02-15T22:26:20.604Z,12.70
2018-02-15T22:28:49.100Z,12.70
2018-02-15T22:31:20.473Z,12.80
2018-02-15T22:33:49.052Z,12.70
2018-02-15T22:36:18.218Z,12.80
2018-02-15T22:38:47.415Z,12.80
2018-02-15T22:41:16.097Z,12.80
2018-02-15T22:43:52.042Z,12.80
2018-02-15T22:46:20.675Z,12.80
2018-02-15T22:48:50.646Z,12.80
2018-02-15T22:51:20.978Z,12.80
2018-02-15T22:53:49.979Z,12.90
2018-02-15T22:56:20.609Z,12.90
2018-02-15T22:58:50.098Z,12.90
2018-02-15T23:01:18.605Z,12.90
2018-02-15T23:03:47.162Z,13.00
2018-02-15T23:06:15.577Z,13.10
2018-02-15T23:08:44.095Z,13.10
2018-02-15T23:11:13.186Z,13.20
2018-02-15T23:13:42.469Z,13.20
2018-02-15T23:16:24.748Z,13.20
2018-02-15T23:18:54.436Z,13.30
2018-02-15T23:21:23.180Z,13.50
2018-02-15T23:23:52.537Z,13.50
2018-02-15T23:26:21.203Z,13.50
2018-02-15T23:28:49.787Z,13.50
2018-02-15T23:31:18.415Z,13.40
2018-02-15T23:33:46.724Z,13.40
2018-02-15T23:36:16.017Z,13.40
2018-02-15T23:38:45.246Z,13.50
2018-02-15T23:41:29.399Z,13.50
2018-02-15T23:43:57.912Z,13.50
2018-02-15T23:46:26.749Z,13.50
2018-02-15T23:48:57.715Z,13.60
2018-02-15T23:51:26.601Z,13.70
2018-02-15T23:53:55.079Z,13.60
2018-02-15T23:56:24.501Z,13.50
2018-02-15T23:58:53.168Z,13.70
